Time;durP1;ratioP1;P1;durP2;ratioP2;P2;SDS_P1;SDS_P2;PMS_P1;PMS_P2;Temp;Humidity;BMP_temperature;BMP_pressure;BME280_temperature;BME280_humidity;BME280_pressure;Samples;Min_cycle;Max_cycle;Signal;HPM_P1;HPM_P2
2023/12/22 00:00:55;;;;;;;12.82;2.10;;;;;;;4.71;100.00;100072.59;5066759;28;20055;-74
2023/12/22 00:03:22;;;;;;;12.45;1.80;;;;;;;4.74;100.00;100074.28;5082633;28;20044;-74
2023/12/22 00:05:49;;;;;;;8.25;2.05;;;;;;;4.82;100.00;100072.41;5049970;28;20140;-74
2023/12/22 00:08:17;;;;;;;10.05;1.73;;;;;;;4.87;100.00;100101.91;5065814;28;20427;-74
2023/12/22 00:10:44;;;;;;;7.75;1.70;;;;;;;4.95;100.00;100102.59;5065963;28;20040;-75
2023/12/22 00:13:11;;;;;;;12.90;2.30;;;;;;;4.99;100.00;100092.97;5084042;28;20526;-75
2023/12/22 00:15:38;;;;;;;17.45;2.20;;;;;;;5.06;100.00;100093.69;5066523;28;20044;-77
2023/12/22 00:18:06;;;;;;;14.23;1.92;;;;;;;5.14;100.00;100097.03;5065554;28;20036;-76
2023/12/22 00:20:33;;;;;;;17.55;1.92;;;;;;;5.16;100.00;100103.09;5064548;28;20060;-75
2023/12/22 00:23:00;;;;;;;10.73;2.30;;;;;;;5.13;100.00;100079.66;5068168;28;20083;-76
2023/12/22 00:25:27;;;;;;;14.10;2.25;;;;;;;5.11;100.00;100082.28;5066152;28;20048;-75
2023/12/22 00:27:54;;;;;;;9.82;2.28;;;;;;;5.10;100.00;100104.06;5061971;28;20452;-75
2023/12/22 00:30:21;;;;;;;10.30;1.90;;;;;;;5.07;100.00;100098.03;5083792;28;20156;-76
2023/12/22 00:32:48;;;;;;;16.05;1.98;;;;;;;5.08;100.00;100107.59;5072353;28;20068;-75
2023/12/22 00:35:15;;;;;;;9.13;1.70;;;;;;;5.06;100.00;100132.91;5069137;28;20045;-75
2023/12/22 00:37:42;;;;;;;10.18;1.50;;;;;;;5.06;100.00;100122.44;5084929;28;20036;-75
2023/12/22 00:40:10;;;;;;;8.00;1.70;;;;;;;5.02;100.00;100112.97;5071808;28;20048;-74
2023/12/22 00:42:37;;;;;;;8.02;1.73;;;;;;;5.00;100.00;100110.34;5071293;28;20094;-75
2023/12/22 00:45:06;;;;;;;12.32;2.08;;;;;;;4.97;100.00;100132.19;5069137;28;20696;-75
2023/12/22 00:47:35;;;;;;;11.20;2.67;;;;;;;4.99;100.00;100137.38;5056929;28;20601;-75
2023/12/22 00:50:04;;;;;;;7.93;1.50;;;;;;;5.00;100.00;100136.47;5053509;28;20066;-75
2023/12/22 00:52:32;;;;;;;10.82;1.52;;;;;;;5.02;100.00;100126.88;5085788;28;20396;-74
2023/12/22 00:54:59;;;;;;;12.48;1.83;;;;;;;5.07;100.00;100124.16;5069641;28;20046;-74
2023/12/22 00:57:26;;;;;;;9.18;1.30;;;;;;;5.11;100.00;100118.00;5069581;28;20045;-73
2023/12/22 00:59:53;;;;;;;9.27;1.50;;;;;;;5.18;100.00;100148.34;5086431;28;20127;-73
2023/12/22 01:02:20;;;;;;;7.38;1.55;;;;;;;5.24;100.00;100140.38;5070279;28;20048;-72
2023/12/22 01:04:48;;;;;;;11.30;1.52;;;;;;;5.29;100.00;100145.53;5069820;28;20056;-72
2023/12/22 01:07:15;;;;;;;8.07;1.75;;;;;;;5.36;100.00;100157.59;5067742;28;20064;-72
2023/12/22 01:09:43;;;;;;;9.80;1.70;;;;;;;5.41;100.00;100162.72;5071291;28;20094;-72
2023/12/22 01:12:10;;;;;;;12.18;2.05;;;;;;;5.38;100.00;100162.78;5082405;28;20052;-73
2023/12/22 01:14:38;;;;;;;12.23;2.00;;;;;;;5.35;100.00;100158.47;5051582;28;20570;-73
2023/12/22 01:17:05;;;;;;;12.32;2.10;;;;;;;5.33;100.00;100151.56;5078117;28;20193;-73
2023/12/22 01:19:32;;;;;;;9.65;1.90;;;;;;;5.31;100.00;100176.88;5080133;28;20051;-72
2023/12/22 01:21:59;;;;;;;6.15;1.00;;;;;;;5.24;100.00;100163.06;5101044;28;20045;-72
2023/12/22 01:24:26;;;;;;;6.43;0.80;;;;;;;5.07;100.00;100172.09;5064379;28;20045;-75
2023/12/22 01:26:53;;;;;;;7.03;1.25;;;;;;;4.87;100.00;100197.69;5066920;28;20049;-75
2023/12/22 01:29:20;;;;;;;4.85;0.90;;;;;;;4.67;100.00;100222.38;5068721;28;20044;-73
2023/12/22 01:31:47;;;;;;;6.20;1.00;;;;;;;4.42;100.00;100225.34;5069010;28;20074;-72
2023/12/22 01:34:14;;;;;;;6.28;1.35;;;;;;;4.24;100.00;100220.41;5066857;28;20047;-72
2023/12/22 01:36:41;;;;;;;7.07;1.60;;;;;;;4.09;100.00;100216.28;5081975;28;20067;-73
2023/12/22 01:39:09;;;;;;;8.30;1.38;;;;;;;3.98;100.00;100212.06;5067146;28;20046;-72
2023/12/22 01:41:36;;;;;;;8.75;1.40;;;;;;;3.95;100.00;100213.84;5067399;28;20041;-71
2023/12/22 01:44:03;;;;;;;5.90;1.33;;;;;;;3.96;100.00;100210.34;5086435;28;20128;-71
2023/12/22 01:46:32;;;;;;;6.35;1.30;;;;;;;3.97;100.00;100196.44;5065930;28;20102;-70
2023/12/22 01:49:03;;;;;;;9.75;1.52;;;;;;;3.96;100.00;100207.75;5050801;28;20040;-71
2023/12/22 01:51:34;;;;;;;6.20;1.08;;;;;;;3.96;100.00;100236.44;5061741;28;20096;-71
2023/12/22 01:54:01;;;;;;;6.80;1.15;;;;;;;3.97;100.00;100228.59;5085392;28;20051;-71
2023/12/22 01:56:29;;;;;;;9.25;1.42;;;;;;;4.00;100.00;100239.00;5065691;28;20041;-71
2023/12/22 01:59:01;;;;;;;6.90;1.10;;;;;;;4.02;100.00;100216.31;5084968;28;20603;-73
2023/12/22 02:01:28;;;;;;;5.57;1.02;;;;;;;4.03;100.00;100206.78;5068574;28;20040;-73
2023/12/22 02:03:58;;;;;;;6.50;1.10;;;;;;;3.98;100.00;100212.06;5085863;28;20439;-73
2023/12/22 02:06:25;;;;;;;5.68;1.25;;;;;;;3.94;100.00;100214.72;5068095;28;20048;-73
2023/12/22 02:08:54;;;;;;;6.63;1.02;;;;;;;3.89;100.00;100209.56;5067586;28;20040;-72
2023/12/22 02:11:21;;;;;;;6.30;1.38;;;;;;;3.85;100.00;100208.75;5067547;28;20040;-73
2023/12/22 02:13:48;;;;;;;7.28;1.23;;;;;;;3.91;100.00;100202.59;5049325;28;20103;-73
2023/12/22 02:16:46;;;;;;;8.63;1.55;;;;;;;3.96;100.00;100207.75;5051856;28;20048;-72
2023/12/22 02:19:37;;;;;;;10.13;1.95;;;;;;;3.98;100.00;100219.00;5069167;28;20060;-73
2023/12/22 02:22:09;;;;;;;9.25;2.25;;;;;;;4.06;100.00;100243.25;5067877;28;20044;-73
2023/12/22 02:24:41;;;;;;;9.93;2.08;;;;;;;4.08;100.00;100222.38;5066835;28;20044;-73
2023/12/22 02:27:22;;;;;;;11.38;3.00;;;;;;;4.11;100.00;100204.91;5060301;28;20037;-73
2023/12/22 02:30:01;;;;;;;14.02;2.90;;;;;;;4.14;100.00;100204.00;5048770;28;20041;-73
2023/12/22 02:32:36;;;;;;;13.27;2.45;;;;;;;4.18;100.00;100205.69;5082203;28;20044;-73
2023/12/22 02:35:10;;;;;;;12.95;2.25;;;;;;;4.22;100.00;100215.22;5067244;28;20039;-73
2023/12/22 02:37:41;;;;;;;11.75;2.25;;;;;;;4.28;100.00;100202.06;5067603;28;20144;-71
2023/12/22 02:40:12;;;;;;;13.93;2.38;;;;;;;4.30;100.00;100179.44;5084630;28;20633;-72
2023/12/22 02:42:39;;;;;;;13.40;2.05;;;;;;;4.30;100.00;100173.34;5068343;28;20059;-72
2023/12/22 02:45:15;;;;;;;11.70;1.90;;;;;;;4.32;100.00;100169.81;5080187;28;20095;-72
2023/12/22 02:47:42;;;;;;;12.45;2.00;;;;;;;4.27;100.00;100173.41;5062659;28;20071;-72
2023/12/22 02:50:13;;;;;;;11.18;2.00;;;;;;;4.18;100.00;100159.59;5067103;28;20051;-72
2023/12/22 02:52:40;;;;;;;14.68;2.42;;;;;;;4.12;100.00;100175.34;5082876;28;20044;-72
2023/12/22 02:55:09;;;;;;;15.98;1.90;;;;;;;4.11;100.00;100163.19;5067539;28;20038;-72
2023/12/22 02:57:36;;;;;;;12.60;1.85;;;;;;;4.04;100.00;100144.13;5067380;28;20076;-72
2023/12/22 03:00:04;;;;;;;12.60;2.22;;;;;;;4.00;100.00;100149.44;5084766;28;20385;-72
2023/12/22 03:02:31;;;;;;;13.32;2.15;;;;;;;3.94;100.00;100157.34;5066660;28;20048;-72
2023/12/22 03:04:58;;;;;;;14.38;2.38;;;;;;;3.92;100.00;100151.28;5082863;28;20100;-73
2023/12/22 03:07:25;;;;;;;13.60;2.53;;;;;;;3.84;100.00;100156.59;5066978;28;20114;-73
2023/12/22 03:09:52;;;;;;;12.13;3.47;;;;;;;3.78;100.00;100149.72;5101630;28;20048;-73
2023/12/22 03:12:19;;;;;;;21.58;3.92;;;;;;;3.77;100.00;100144.53;5067340;28;20580;-73
2023/12/22 03:14:46;;;;;;;13.65;2.55;;;;;;;3.73;100.00;100147.16;5068586;28;20072;-73
2023/12/22 03:17:14;;;;;;;24.23;3.20;;;;;;;3.76;100.00;100148.03;5067499;28;20072;-73
2023/12/22 03:19:41;;;;;;;18.70;2.78;;;;;;;3.77;100.00;100144.53;5067384;28;20520;-73
2023/12/22 03:22:09;;;;;;;20.58;3.20;;;;;;;3.83;100.00;100144.44;5064763;28;20036;-73
2023/12/22 03:24:37;;;;;;;19.63;3.40;;;;;;;3.87;100.00;100153.97;5067930;28;20052;-72
2023/12/22 03:27:04;;;;;;;16.95;3.17;;;;;;;3.94;100.00;100167.78;5100597;28;20036;-72
2023/12/22 03:29:31;;;;;;;21.48;3.60;;;;;;;3.97;100.00;100147.72;5052973;28;20455;-72
2023/12/22 03:31:58;;;;;;;18.00;3.33;;;;;;;4.09;100.00;100166.69;5054414;28;20059;-72
2023/12/22 03:34:25;;;;;;;14.60;2.80;;;;;;;4.32;100.00;100161.97;5066879;28;20040;-72
2023/12/22 03:36:52;;;;;;;19.05;3.00;;;;;;;4.40;100.00;100156.66;5060974;28;20563;-72
2023/12/22 03:39:19;;;;;;;16.65;2.90;;;;;;;4.55;100.00;100160.75;5065864;28;20040;-73
2023/12/22 03:41:46;;;;;;;11.70;2.33;;;;;;;4.71;100.00;100170.97;5065862;28;20047;-72
2023/12/22 03:44:13;;;;;;;18.95;3.38;;;;;;;4.89;100.00;100152.38;5066049;28;20658;-72
2023/12/22 03:46:41;;;;;;;17.13;3.28;;;;;;;5.00;100.00;100152.16;5081383;28;20067;-73
2023/12/22 03:49:08;;;;;;;15.15;2.78;;;;;;;5.06;100.00;100138.13;5068339;28;20123;-72
2023/12/22 03:51:35;;;;;;;16.48;2.85;;;;;;;5.11;100.00;100150.22;5065630;28;20156;-73
2023/12/22 03:54:02;;;;;;;18.17;2.60;;;;;;;5.16;100.00;100157.13;5068203;28;20045;-73
2023/12/22 03:56:29;;;;;;;14.43;2.90;;;;;;;5.23;100.00;100156.09;5094831;28;20047;-73
2023/12/22 03:58:56;;;;;;;19.42;3.30;;;;;;;5.31;100.00;100175.09;5068179;28;20752;-73
2023/12/22 04:01:23;;;;;;;14.68;2.85;;;;;;;5.32;100.00;100157.69;5067376;28;20648;-73
2023/12/22 04:03:50;;;;;;;12.60;2.90;;;;;;;5.39;100.00;100164.50;5068592;28;20102;-73
2023/12/22 04:06:17;;;;;;;15.25;2.55;;;;;;;5.44;100.00;100158.28;5063085;28;20105;-73
2023/12/22 04:08:44;;;;;;;18.92;2.72;;;;;;;5.49;100.00;100180.88;5067188;28;20064;-73
2023/12/22 04:11:12;;;;;;;16.20;2.92;;;;;;;5.50;100.00;100167.78;5069023;28;20048;-73
2023/12/22 04:13:39;;;;;;;18.58;3.10;;;;;;;5.58;100.00;100180.69;5067575;28;20045;-73
2023/12/22 04:16:06;;;;;;;13.88;2.85;;;;;;;5.69;100.00;100177.84;5065027;28;20044;-73
2023/12/22 04:18:33;;;;;;;8.80;2.50;;;;;;;5.77;100.00;100182.94;5048376;28;20520;-73
2023/12/22 04:21:00;;;;;;;16.58;3.40;;;;;;;5.85;100.00;100181.84;5046108;28;20053;-73
2023/12/22 04:23:27;;;;;;;17.90;2.50;;;;;;;5.94;100.00;100164.25;5063112;28;20053;-74
2023/12/22 04:25:55;;;;;;;16.00;2.83;;;;;;;5.95;100.00;100171.22;5065022;28;20049;-74
2023/12/22 04:28:22;;;;;;;15.68;2.72;;;;;;;5.97;100.00;100172.03;5067050;28;20174;-73
2023/12/22 04:30:50;;;;;;;16.67;3.00;;;;;;;6.00;100.00;100169.38;5082967;28;20127;-74
2023/12/22 04:33:17;;;;;;;16.30;2.75;;;;;;;6.04;100.00;100160.59;5067435;28;20055;-73
2023/12/22 04:35:44;;;;;;;17.02;2.88;;;;;;;6.14;100.00;100163.84;5082688;28;20052;-74
2023/12/22 04:38:11;;;;;;;12.32;2.50;;;;;;;6.17;100.00;100167.25;5097997;28;20622;-74
2023/12/22 04:40:38;;;;;;;15.20;2.70;;;;;;;6.24;100.00;100180.22;5065602;28;20109;-74
2023/12/22 04:43:06;;;;;;;10.00;2.33;;;;;;;6.32;100.00;100171.25;5064797;28;20064;-73
2023/12/22 04:45:32;;;;;;;12.48;2.55;;;;;;;6.39;100.00;100213.88;5066108;28;20415;-74
2023/12/22 04:47:59;;;;;;;19.20;2.97;;;;;;;6.48;100.00;100194.47;5066831;28;20441;-73
2023/12/22 04:50:27;;;;;;;19.95;3.33;;;;;;;6.55;100.00;100182.09;5083474;28;20054;-73
2023/12/22 04:52:54;;;;;;;12.85;2.47;;;;;;;6.63;99.63;100248.25;5067407;28;20056;-74
2023/12/22 04:55:22;;;;;;;12.45;2.28;;;;;;;6.46;100.00;100257.34;5066634;28;20048;-75
2023/12/22 04:57:49;;;;;;;7.30;2.03;;;;;;;6.06;100.00;100246.00;5066709;28;20056;-74
2023/12/22 05:00:16;;;;;;;10.55;1.80;;;;;;;5.67;100.00;100234.56;5082862;28;20045;-75
2023/12/22 05:02:43;;;;;;;11.13;2.33;;;;;;;5.37;100.00;100239.47;5067502;28;20070;-74
2023/12/22 05:05:11;;;;;;;12.13;2.00;;;;;;;5.19;100.00;100243.31;5078497;28;20041;-75
2023/12/22 05:07:40;;;;;;;13.05;3.00;;;;;;;5.07;100.00;100237.41;5064894;28;20044;-74
2023/12/22 05:10:08;;;;;;;12.57;2.53;;;;;;;4.96;100.00;100234.94;5076888;28;20033;-75
2023/12/22 05:12:35;;;;;;;14.02;2.90;;;;;;;4.91;100.00;100228.97;5058950;28;20036;-75
2023/12/22 05:15:03;;;;;;;19.70;3.35;;;;;;;4.86;100.00;100216.84;5062842;28;20124;-75
2023/12/22 05:17:30;;;;;;;38.10;9.75;;;;;;;4.84;100.00;100219.47;5054910;28;20127;-75
2023/12/22 05:19:57;;;;;;;32.25;6.97;;;;;;;4.84;100.00;100222.09;5050458;28;20052;-74
2023/12/22 05:22:24;;;;;;;40.70;9.75;;;;;;;4.91;100.00;100228.97;5068247;28;20127;-74
2023/12/22 05:24:51;;;;;;;19.20;4.05;;;;;;;5.02;100.00;100213.09;5068480;28;20052;-74
2023/12/22 05:27:18;;;;;;;123.93;24.65;;;;;;;5.15;100.00;100213.72;5068543;28;20047;-75
2023/12/22 05:29:45;;;;;;;126.18;37.22;;;;;;;5.30;100.00;100220.44;5068910;28;20045;-75
2023/12/22 05:32:12;;;;;;;22.83;4.55;;;;;;;5.39;100.00;100227.25;5062740;28;20112;-73
2023/12/22 05:34:39;;;;;;;99.30;29.25;;;;;;;5.51;100.00;100223.53;5066648;28;20064;-73
2023/12/22 05:37:07;;;;;;;68.22;22.70;;;;;;;5.65;100.00;100204.94;5064026;28;20114;-70
2023/12/22 05:39:34;;;;;;;69.88;22.65;;;;;;;5.81;100.00;100210.72;5065709;28;20047;-70
2023/12/22 05:42:01;;;;;;;151.05;46.40;;;;;;;5.95;100.00;100223.56;5068712;28;20036;-70
2023/12/22 05:44:30;;;;;;;222.80;49.45;;;;;;;6.07;100.00;100225.91;5082373;28;20037;-69
2023/12/22 05:46:58;;;;;;;265.98;60.85;;;;;;;6.16;100.00;100211.78;5062052;28;20487;-70
2023/12/22 05:49:25;;;;;;;112.60;26.27;;;;;;;6.19;100.00;100212.56;5058717;28;20028;-70
2023/12/22 05:51:53;;;;;;;204.35;53.45;;;;;;;6.28;100.00;100208.00;5062105;28;20045;-69
2023/12/22 05:54:21;;;;;;;102.85;28.40;;;;;;;6.35;100.00;100209.63;5082542;28;20044;-70
2023/12/22 05:56:48;;;;;;;110.95;35.42;;;;;;;6.40;100.00;100209.50;5067452;28;20036;-70
2023/12/22 05:59:15;;;;;;;186.30;56.55;;;;;;;6.44;100.00;100208.53;5099849;28;20040;-70
2023/12/22 06:01:42;;;;;;;99.50;33.63;;;;;;;6.48;100.00;100202.34;5064607;28;20090;-69
2023/12/22 06:04:15;;;;;;;241.98;64.75;;;;;;;6.48;100.00;100208.41;5069789;28;20055;-70
2023/12/22 06:06:42;;;;;;;190.45;57.95;;;;;;;6.50;100.00;100203.16;5068269;28;20114;-70
2023/12/22 06:09:12;;;;;;;80.97;28.35;;;;;;;6.52;100.00;100210.09;5067352;28;20036;-68
2023/12/22 06:11:39;;;;;;;179.23;55.55;;;;;;;6.56;100.00;100217.88;5056829;28;20333;-70
2023/12/22 06:14:06;;;;;;;99.75;34.15;;;;;;;6.53;100.00;100205.69;5069423;28;20045;-70
2023/12/22 06:16:33;;;;;;;16.50;4.40;;;;;;;6.57;100.00;100209.97;5055079;28;20048;-72
2023/12/22 06:19:01;;;;;;;11.57;3.10;;;;;;;6.61;100.00;100223.84;5067815;28;20036;-70
2023/12/22 06:21:28;;;;;;;14.23;3.58;;;;;;;6.65;100.00;100215.03;5051393;28;20044;-68
2023/12/22 06:23:55;;;;;;;16.92;6.50;;;;;;;6.66;100.00;100214.13;5063409;28;20044;-70
2023/12/22 06:26:22;;;;;;;18.90;4.80;;;;;;;6.70;100.00;100196.59;5061911;28;20137;-70
2023/12/22 06:28:49;;;;;;;8.60;2.67;;;;;;;6.72;100.00;100200.00;5063110;28;20036;-70
2023/12/22 06:31:20;;;;;;;9.18;1.85;;;;;;;6.72;100.00;100223.56;5053646;28;20053;-70
2023/12/22 06:33:48;;;;;;;9.70;1.85;;;;;;;6.73;99.11;100222.69;5067573;28;20118;-71
2023/12/22 06:36:24;;;;;;;6.97;2.08;;;;;;;6.68;98.80;100210.56;5064273;28;20109;-71
2023/12/22 06:38:57;;;;;;;9.45;2.10;;;;;;;6.63;99.72;100230.75;5067066;28;20040;-71
2023/12/22 06:41:27;;;;;;;11.93;2.50;;;;;;;6.57;100.00;100230.91;5066959;28;20040;-71
2023/12/22 06:43:59;;;;;;;10.45;2.47;;;;;;;6.52;100.00;100219.69;5093725;28;20136;-71
2023/12/22 06:46:31;;;;;;;10.73;2.20;;;;;;;6.46;100.00;100227.69;5062834;28;20044;-71
2023/12/22 06:48:59;;;;;;;12.40;2.17;;;;;;;6.39;100.00;100226.97;5067312;28;20037;-71
2023/12/22 06:51:31;;;;;;;13.05;2.38;;;;;;;6.41;100.00;100225.19;5058580;28;20052;-72
2023/12/22 06:54:01;;;;;;;15.48;2.50;;;;;;;6.46;100.00;100219.84;5047628;28;20143;-71
2023/12/22 06:56:33;;;;;;;13.77;2.67;;;;;;;6.49;100.00;100219.78;5059416;28;20033;-70
2023/12/22 06:59:01;;;;;;;15.25;2.83;;;;;;;6.57;100.00;100214.31;5058686;28;20040;-71
2023/12/22 07:01:31;;;;;;;10.07;2.10;;;;;;;6.60;100.00;100211.66;5081126;28;20040;-71
2023/12/22 07:04:02;;;;;;;13.18;2.47;;;;;;;6.62;100.00;100212.47;5078127;28;20044;-71
2023/12/22 07:06:32;;;;;;;11.70;2.70;;;;;;;6.61;100.00;100203.78;5067399;28;20492;-71
2023/12/22 07:09:12;;;;;;;18.20;3.53;;;;;;;6.60;100.00;100188.06;5066887;28;20049;-71
2023/12/22 07:11:46;;;;;;;14.68;3.08;;;;;;;6.58;100.00;100195.97;5095622;28;20384;-71
2023/12/22 07:14:13;;;;;;;18.60;3.17;;;;;;;6.57;100.00;100199.50;5056733;28;20090;-71
2023/12/22 07:16:42;;;;;;;17.15;3.33;;;;;;;6.53;100.00;100189.97;5099223;28;20051;-71
2023/12/22 07:19:09;;;;;;;15.88;3.60;;;;;;;6.51;100.00;100187.41;5066962;28;20044;-71
2023/12/22 07:21:36;;;;;;;13.85;3.35;;;;;;;6.51;100.00;100182.16;5065355;28;20051;-71
2023/12/22 07:24:05;;;;;;;19.48;4.05;;;;;;;6.55;100.00;100187.34;5078946;28;20131;-72
2023/12/22 07:26:32;;;;;;;24.92;4.78;;;;;;;6.53;100.00;100187.34;5068083;28;20140;-71
2023/12/22 07:28:59;;;;;;;24.83;4.97;;;;;;;6.58;100.00;100185.50;5067611;28;20144;-71
2023/12/22 07:31:26;;;;;;;25.60;5.53;;;;;;;6.61;100.00;100195.03;5054052;28;20061;-71
2023/12/22 07:33:55;;;;;;;26.17;5.38;;;;;;;6.62;100.00;100187.13;5047749;28;20135;-71
2023/12/22 07:36:22;;;;;;;25.35;6.07;;;;;;;6.69;100.00;100206.19;5047769;28;20091;-71
2023/12/22 07:38:49;;;;;;;28.52;8.45;;;;;;;6.74;100.00;100209.56;5047980;28;20045;-71
2023/12/22 07:41:16;;;;;;;36.40;14.70;;;;;;;6.78;100.00;100211.19;5057817;28;20128;-71
2023/12/22 07:43:44;;;;;;;28.15;7.13;;;;;;;6.85;100.00;100204.03;5068614;28;20119;-71
2023/12/22 07:46:19;;;;;;;28.48;6.03;;;;;;;6.91;100.00;100203.03;5099590;28;20840;-71
2023/12/22 07:48:46;;;;;;;35.30;6.82;;;;;;;6.96;100.00;100201.19;5066616;28;20058;-71
2023/12/22 07:51:15;;;;;;;31.23;6.28;;;;;;;7.01;100.00;100203.69;5066857;28;20044;-71
2023/12/22 07:53:43;;;;;;;26.50;6.55;;;;;;;7.03;100.00;100202.72;5063379;28;20048;-71
2023/12/22 07:56:10;;;;;;;27.40;5.93;;;;;;;7.08;100.00;100194.75;5067149;28;20048;-71
2023/12/22 07:58:39;;;;;;;33.47;6.35;;;;;;;7.10;100.00;100204.28;5068609;28;20049;-70
2023/12/22 08:01:06;;;;;;;38.58;7.43;;;;;;;7.11;100.00;100206.00;5073282;28;20561;-70
2023/12/22 08:03:34;;;;;;;30.30;5.82;;;;;;;7.14;100.00;100197.19;5048588;28;20445;-70
2023/12/22 08:06:01;;;;;;;29.88;5.65;;;;;;;7.18;100.00;100197.97;5063146;28;20476;-71
2023/12/22 08:08:29;;;;;;;32.50;6.20;;;;;;;7.25;100.00;100213.50;5067907;28;20054;-71
2023/12/22 08:10:56;;;;;;;33.33;6.35;;;;;;;7.29;100.00;100206.41;5058727;28;20465;-71
2023/12/22 08:13:23;;;;;;;27.08;7.32;;;;;;;7.29;100.00;100204.66;5047746;28;20068;-71
2023/12/22 08:15:50;;;;;;;33.22;8.70;;;;;;;7.34;100.00;100201.91;5080399;28;20097;-71
2023/12/22 08:18:17;;;;;;;25.90;6.88;;;;;;;7.38;100.00;100206.16;5047834;28;20037;-71
2023/12/22 08:20:45;;;;;;;50.15;11.68;;;;;;;7.39;100.00;100205.25;5053526;28;20565;-71
2023/12/22 08:23:15;;;;;;;27.63;5.50;;;;;;;7.43;100.00;100192.91;5065966;28;20093;-71
2023/12/22 08:25:43;;;;;;;38.67;6.57;;;;;;;7.49;100.00;100189.28;5066082;28;20447;-71
2023/12/22 08:28:12;;;;;;;27.77;5.85;;;;;;;7.49;100.00;100192.78;5067769;28;20480;-71
2023/12/22 08:30:40;;;;;;;34.65;5.95;;;;;;;7.53;100.00;100181.28;5067414;28;20040;-71
2023/12/22 08:33:07;;;;;;;32.30;5.90;;;;;;;7.55;100.00;100182.09;5067916;28;20040;-70
2023/12/22 08:35:35;;;;;;;36.35;5.65;;;;;;;7.65;100.00;100190.56;5098800;28;20135;-70
2023/12/22 08:38:02;;;;;;;29.58;5.97;;;;;;;7.70;100.00;100186.03;5067233;28;20071;-71
2023/12/22 08:40:30;;;;;;;29.27;6.15;;;;;;;7.73;100.00;100183.34;5066400;28;20510;-71
2023/12/22 08:43:00;;;;;;;25.13;4.38;;;;;;;7.78;100.00;100178.81;5066918;28;20143;-70
2023/12/22 08:45:28;;;;;;;25.10;4.70;;;;;;;7.85;100.00;100176.84;5067513;28;20083;-71
2023/12/22 08:47:57;;;;;;;18.55;4.15;;;;;;;7.90;100.00;100161.84;5067022;28;20037;-71
2023/12/22 08:50:25;;;;;;;23.08;4.60;;;;;;;7.93;100.00;100164.41;5066624;28;20630;-71
2023/12/22 08:52:52;;;;;;;19.92;4.10;;;;;;;7.91;100.00;100186.31;5070322;28;20048;-71
2023/12/22 08:55:19;;;;;;;26.40;4.97;;;;;;;7.86;100.00;100162.00;5070886;28;20041;-72
2023/12/22 08:57:47;;;;;;;31.60;4.90;;;;;;;7.76;100.00;100141.28;5070420;28;20051;-72
2023/12/22 09:00:26;;;;;;;19.20;4.00;;;;;;;7.68;100.00;100139.78;5070480;28;20040;-72
2023/12/22 09:02:54;;;;;;;26.40;4.43;;;;;;;7.63;100.00;100136.44;5070601;28;20504;-72
2023/12/22 09:05:21;;;;;;;21.27;4.95;;;;;;;7.62;100.00;100151.31;5065668;28;20589;-72
2023/12/22 09:07:49;;;;;;;18.15;4.43;;;;;;;7.63;100.00;100149.56;5071119;28;20036;-71
2023/12/22 09:10:17;;;;;;;20.10;3.70;;;;;;;7.60;100.00;100146.13;5082041;28;20416;-72
2023/12/22 09:12:44;;;;;;;15.35;3.10;;;;;;;7.61;100.00;100136.47;5066782;28;20148;-71
2023/12/22 09:15:12;;;;;;;16.20;3.63;;;;;;;7.65;100.00;100131.97;5055561;28;20051;-73
2023/12/22 09:17:41;;;;;;;16.70;3.13;;;;;;;7.68;100.00;100116.16;5079762;28;20448;-71
2023/12/22 09:20:12;;;;;;;18.02;2.70;;;;;;;7.73;100.00;100130.88;5069762;28;20036;-71
2023/12/22 09:22:39;;;;;;;11.48;2.67;;;;;;;7.81;100.00;100153.38;5080332;28;20044;-72
2023/12/22 09:25:08;;;;;;;11.32;2.38;;;;;;;7.88;100.00;100150.53;5063529;28;20483;-72
2023/12/22 09:27:35;;;;;;;13.13;2.53;;;;;;;7.98;100.00;100156.38;5068514;28;20491;-72
2023/12/22 09:30:06;;;;;;;16.20;2.70;;;;;;;8.04;100.00;100152.69;5069139;28;20101;-72
2023/12/22 09:32:34;;;;;;;8.48;1.77;;;;;;;8.08;100.00;100162.19;5069896;28;20044;-72
2023/12/22 09:35:02;;;;;;;6.00;1.83;;;;;;;8.14;100.00;100153.25;5059020;28;20050;-71
2023/12/22 09:37:30;;;;;;;10.18;2.30;;;;;;;8.15;100.00;100147.09;5085757;28;20128;-72
2023/12/22 09:39:57;;;;;;;10.23;2.38;;;;;;;8.14;100.00;100148.84;5070046;28;20064;-72
2023/12/22 09:42:25;;;;;;;10.00;2.35;;;;;;;8.13;100.00;100151.53;5068765;28;20044;-72
2023/12/22 09:44:59;;;;;;;9.20;2.05;;;;;;;8.12;100.00;100137.56;5102647;28;20052;-72
2023/12/22 09:47:30;;;;;;;7.20;2.08;;;;;;;8.10;100.00;100147.25;5069933;28;20044;-72
2023/12/22 09:49:58;;;;;;;8.07;2.00;;;;;;;8.14;100.00;100197.91;5069637;28;20040;-71
2023/12/22 09:52:27;;;;;;;9.57;2.47;;;;;;;8.16;100.00;100136.56;5102114;28;20048;-72
2023/12/22 09:54:56;;;;;;;6.72;2.20;;;;;;;8.17;100.00;100138.28;5069917;28;20045;-72
2023/12/22 09:57:26;;;;;;;8.00;2.15;;;;;;;8.13;100.00;100128.78;5067645;28;20102;-72
2023/12/22 09:59:57;;;;;;;6.20;1.63;;;;;;;8.13;100.00;100120.03;5085585;28;20195;-72
2023/12/22 10:02:27;;;;;;;9.55;1.70;;;;;;;8.11;100.00;100137.59;5068612;28;20048;-71
2023/12/22 10:04:54;;;;;;;4.88;1.20;;;;;;;8.08;100.00;100143.81;5067089;28;20048;-71
2023/12/22 10:07:22;;;;;;;6.95;1.88;;;;;;;8.04;100.00;100145.69;5081528;28;20160;-71
2023/12/22 10:09:50;;;;;;;6.05;2.08;;;;;;;8.02;100.00;100130.88;5081295;28;20127;-72
2023/12/22 10:12:19;;;;;;;7.82;2.05;;;;;;;8.00;100.00;100132.69;5061459;28;20087;-72
2023/12/22 10:14:48;;;;;;;9.57;2.25;;;;;;;8.01;100.00;100144.91;5056768;28;20135;-72
2023/12/22 10:17:16;;;;;;;9.43;1.90;;;;;;;8.02;100.00;100134.34;5068128;28;20047;-72
2023/12/22 10:19:43;;;;;;;7.78;1.90;;;;;;;8.08;100.00;100133.31;5073905;28;20048;-72
2023/12/22 10:22:11;;;;;;;9.20;2.00;;;;;;;8.13;100.00;100117.41;5068020;28;20051;-72
2023/12/22 10:24:43;;;;;;;5.72;1.33;;;;;;;8.17;100.00;100121.66;5052494;28;20113;-71
2023/12/22 10:27:11;;;;;;;7.55;1.70;;;;;;;8.20;100.00;100116.31;5057413;28;20036;-72
2023/12/22 10:29:39;;;;;;;7.88;1.75;;;;;;;8.27;100.00;100109.09;5101799;28;20048;-72
2023/12/22 10:32:08;;;;;;;7.25;1.55;;;;;;;8.33;100.00;100116.78;5083492;28;20069;-71
2023/12/22 10:34:36;;;;;;;8.85;1.40;;;;;;;8.39;100.00;100108.69;5068690;28;20068;-72
2023/12/22 10:37:04;;;;;;;7.25;1.80;;;;;;;8.45;100.00;100123.41;5063826;28;20518;-71
2023/12/22 10:39:32;;;;;;;6.65;1.30;;;;;;;8.50;100.00;100121.50;5068729;28;20117;-71
2023/12/22 10:41:59;;;;;;;9.57;1.67;;;;;;;8.56;100.00;100110.81;5056605;28;20115;-71
2023/12/22 10:44:29;;;;;;;8.68;1.80;;;;;;;8.58;100.00;100110.75;5048757;28;20044;-71
2023/12/22 10:46:57;;;;;;;3.78;1.20;;;;;;;8.61;100.00;100118.53;5083913;28;20144;-71
2023/12/22 10:49:26;;;;;;;8.93;1.50;;;;;;;8.65;100.00;100133.25;5068739;28;20049;-71
2023/12/22 10:51:53;;;;;;;5.40;1.42;;;;;;;8.71;100.00;100117.31;5062966;28;20044;-71
2023/12/22 10:54:20;;;;;;;6.82;1.63;;;;;;;8.78;100.00;100120.59;5068296;28;20076;-71
2023/12/22 10:56:48;;;;;;;5.70;1.60;;;;;;;8.88;100.00;100113.22;5065601;28;20123;-71
2023/12/22 10:59:22;;;;;;;3.67;1.30;;;;;;;8.97;100.00;100123.41;5065785;28;20056;-71
2023/12/22 11:01:53;;;;;;;7.35;1.35;;;;;;;9.00;100.00;100113.66;5061648;28;20114;-71
2023/12/22 11:04:22;;;;;;;5.78;1.50;;;;;;;9.03;100.00;100120.59;5067442;28;20144;-71
2023/12/22 11:06:56;;;;;;;4.72;1.10;;;;;;;9.09;100.00;100130.88;5067506;28;20059;-71
2023/12/22 11:09:26;;;;;;;4.20;0.93;;;;;;;9.11;100.00;100123.81;5067745;28;20191;-71
2023/12/22 11:11:56;;;;;;;4.07;1.00;;;;;;;9.15;100.00;100122.78;5080278;28;20458;-71
2023/12/22 11:14:26;;;;;;;7.25;1.33;;;;;;;9.21;100.00;100124.31;5068799;28;20125;-71
2023/12/22 11:16:55;;;;;;;2.90;0.85;;;;;;;9.29;100.00;100126.66;5066246;28;20052;-71
2023/12/22 11:19:24;;;;;;;3.88;1.13;;;;;;;9.30;100.00;100118.75;5066158;28;20056;-71
2023/12/22 11:21:54;;;;;;;5.00;1.00;;;;;;;9.34;100.00;100122.13;5067108;28;20048;-71
2023/12/22 11:24:25;;;;;;;4.68;1.10;;;;;;;9.32;100.00;100116.03;5079043;28;20163;-71